Terminal Aerodrome Forecast
Issued by NWS

Home | Current Version | Previous Version | Text Only | Print | Product List | Glossary On
Versions: 1 2 3 4 5 6 7 8 9 10 11 12 13 14 15 16
000
FTUS43 KPAH 220520
TAFOWB
TAF
KOWB 220520Z 2206/2306 23008KT P6SM FEW050
     FM221200 16005KT P6SM BKN060
     FM221400 16012KT P6SM -SHRA BKN045=

USA.gov is the U.S. government's official web portal to all federal, state and local government web resources and services.